Orlando, FL (32829)

4:19 AM EST on February 25, 2017 (GMT -0500)
Chickasaw Oaks | | Change Station
Active Advisory: Special Statement

Elev 82 ft 28.49 °N, 81.27 °W | Updated 1 minute ago

Partly Cloudy
Partly Cloudy
60.3 °F
Feels Like 60.3 °F
N
0.0
Wind Variable Wind from East
Gusts 0.0 mph

Today
High -- | Low -- °F
--% Chance of Precip.
Yesterday
High -- | Low -- °F
Precip. -- in
Pressure 29.84 in
Visibility 7.0 miles
Clouds Few 1300 ft
Dew Point 60 °F
Humidity 97%
Rainfall 0.00 in
Snow Depth Not available.
6:53 AM 6:22 PM
Waning Crescent, 2% visible
METAR KMCO 250853Z 22003KT 7SM MIFG FEW013 16/14 A2984 RMK AO2 SLP104 T01560144 58007
Pressure 29.84 in
Visibility 7.0 miles
Clouds Few 1300 ft
Dew Point 60 °F
Humidity 97%
Rainfall 0.00 in
Snow Depth Not available.
6:53 AM 6:22 PM
Waning Crescent, 2% visible
METAR KMCO 250853Z 22003KT 7SM MIFG FEW013 16/14 A2984 RMK AO2 SLP104 T01560144 58007

Get Your Daily Forecast Email!

Thanks for signing up!

Be on the lookout for a verification email in your inbox.

You'll start receiving the daily forecast at 8 AM.

×

10-Day Weather Forecast

Almanac

Astronomy

Feb. 25, 2017 Rise Set
Actual Time
Civil Twilight
Nautical Twilight
Astronomical Twilight
Moon
Length of Visible Light
Length of Day
Tomorrow will be .
, % of the Moon is Illuminated

Today's Extremes

State Highs State Lows

Community

WunderPhotos

Upload Photos

1,962,540 photos uploaded!

WunderBlog® & News

Nearby

Air Quality

  Air Quality AQ Index Pollutant
Not available.

Snow Depth

Station Depth Elevation

Earthquake Activity

City Distance Mag. Time & Date
Minimum magnitude displayed is 2.5.

Coastal Water Temperatures

Place Temperature

Stations

Nearby Weather Stations

Station Location Temp. Windchill Dew Point Humidity Wind Precip. Elev Updated Type
                   

Watches & Warnings

Special Statement
Issued: 2:45 AM EST Feb. 25, 2017 – National Weather Service

... Widespread fog developing... becoming dense in many areas...

Fog will become widespread across east central Florida during the
early morning hours. Areas of dense fog are likely... especially north
and west of Martin County. Visibilities will drop below one quarter
mile at times. Motorists should prepare to encounter rapidly
changing visibilities due to fog through early Saturday.


Additional details... including graphics are available online at:
http://www.Weather.Gov/mlb/blog


Spratt